PGT0712 UKBB-UKDE
Flight info
| Callsign | PGT0712 |
|---|---|
| Flight time | 0h 38m |
| Altitude | 33000 |
| Route | BASOR L33 DEMER M70 ODNIV |
| Aircraft | A20N/M-SDE2E3FGHIRWXY/LB1 |
Departure
| Time | 2026-04-27 13:28 |
|---|---|
| Airport | Boryspil International Airport (UKBB) |
Arrival
| Time | 2026-04-27 14:07 |
|---|---|
| Airport | Zaporizhzhia International Airport (UKDE) |
| Time | Latitude | Longitude | Altitude | Speed | Heading |
|---|---|---|---|---|---|
| 2026-04-27 12:49 | 50.35152 | 30.89888 | 410 ft | 0 kts | 272° |
| 2026-04-27 13:05 | 50.35152 | 30.89890 | 414 ft | 1 kts | 272° |
| 2026-04-27 13:05 | 50.35152 | 30.89902 | 407 ft | 1 kts | 272° |
| 2026-04-27 13:05 | 50.35151 | 30.89914 | 407 ft | 1 kts | 272° |
| 2026-04-27 13:05 | 50.35151 | 30.89926 | 407 ft | 1 kts | 272° |
| 2026-04-27 13:06 | 50.35151 | 30.89935 | 407 ft | 0 kts | 272° |
| 2026-04-27 13:06 | 50.35151 | 30.89942 | 408 ft | 1 kts | 272° |
| 2026-04-27 13:06 | 50.35150 | 30.89954 | 408 ft | 1 kts | 266° |
| 2026-04-27 13:06 | 50.35151 | 30.89966 | 408 ft | 1 kts | 260° |
| 2026-04-27 13:07 | 50.35152 | 30.89978 | 409 ft | 1 kts | 254° |
| 2026-04-27 13:07 | 50.35155 | 30.89990 | 409 ft | 1 kts | 248° |
| 2026-04-27 13:07 | 50.35158 | 30.90001 | 409 ft | 1 kts | 242° |
| 2026-04-27 13:07 | 50.35161 | 30.90011 | 409 ft | 1 kts | 235° |
| 2026-04-27 13:08 | 50.35166 | 30.90021 | 410 ft | 1 kts | 229° |
| 2026-04-27 13:08 | 50.35171 | 30.90030 | 407 ft | 1 kts | 223° |
| 2026-04-27 13:08 | 50.35172 | 30.90032 | 414 ft | 0 kts | 221° |
| 2026-04-27 13:12 | 50.35170 | 30.90029 | 414 ft | 2 kts | 225° |
| 2026-04-27 13:12 | 50.35167 | 30.90025 | 414 ft | 1 kts | 220° |
| 2026-04-27 13:12 | 50.35156 | 30.90022 | 410 ft | 1 kts | 166° |
| 2026-04-27 13:13 | 50.35154 | 30.90027 | 411 ft | 1 kts | 142° |
| 2026-04-27 13:13 | 50.35149 | 30.90043 | 412 ft | 1 kts | 108° |
| 2026-04-27 13:13 | 50.35151 | 30.90050 | 412 ft | 1 kts | 76° |
| 2026-04-27 13:13 | 50.35154 | 30.90053 | 407 ft | 1 kts | 55° |
| 2026-04-27 13:14 | 50.35169 | 30.90078 | 411 ft | 5 kts | 45° |
| 2026-04-27 13:14 | 50.35191 | 30.90141 | 415 ft | 8 kts | 82° |
| 2026-04-27 13:14 | 50.35171 | 30.90233 | 413 ft | 11 kts | 132° |
| 2026-04-27 13:14 | 50.35113 | 30.90252 | 415 ft | 0 kts | 185° |
| 2026-04-27 13:15 | 50.35110 | 30.90252 | 408 ft | 2 kts | 181° |
| 2026-04-27 13:15 | 50.35083 | 30.90251 | 414 ft | 6 kts | 182° |
| 2026-04-27 13:15 | 50.35029 | 30.90248 | 408 ft | 10 kts | 182° |
| 2026-04-27 13:15 | 50.35020 | 30.90247 | 410 ft | 0 kts | 182° |
| 2026-04-27 13:17 | 50.35015 | 30.90247 | 410 ft | 0 kts | 182° |
| 2026-04-27 13:17 | 50.35012 | 30.90247 | 411 ft | 0 kts | 181° |
| 2026-04-27 13:17 | 50.35004 | 30.90246 | 410 ft | 2 kts | 182° |
| 2026-04-27 13:18 | 50.34988 | 30.90245 | 411 ft | 3 kts | 182° |
| 2026-04-27 13:18 | 50.34976 | 30.90245 | 412 ft | 0 kts | 182° |
| 2026-04-27 13:18 | 50.34973 | 30.90245 | 413 ft | 0 kts | 182° |
| 2026-04-27 13:18 | 50.34964 | 30.90244 | 413 ft | 2 kts | 182° |
| 2026-04-27 13:19 | 50.34958 | 30.90244 | 408 ft | 0 kts | 182° |
| 2026-04-27 13:19 | 50.34957 | 30.90244 | 408 ft | 1 kts | 182° |
| 2026-04-27 13:19 | 50.34902 | 30.90240 | 412 ft | 0 kts | 183° |
| 2026-04-27 13:20 | 50.34818 | 30.90232 | 410 ft | 19 kts | 183° |
| 2026-04-27 13:20 | 50.34732 | 30.90226 | 413 ft | 17 kts | 182° |
| 2026-04-27 13:20 | 50.34596 | 30.90216 | 411 ft | 26 kts | 183° |
| 2026-04-27 13:20 | 50.34486 | 30.90208 | 410 ft | 15 kts | 182° |
| 2026-04-27 13:21 | 50.34382 | 30.90200 | 410 ft | 15 kts | 182° |
| 2026-04-27 13:21 | 50.34263 | 30.90191 | 414 ft | 17 kts | 183° |
| 2026-04-27 13:21 | 50.34111 | 30.90179 | 412 ft | 17 kts | 182° |
| 2026-04-27 13:21 | 50.33968 | 30.90169 | 410 ft | 26 kts | 181° |
| 2026-04-27 13:22 | 50.33857 | 30.90162 | 409 ft | 10 kts | 183° |
| 2026-04-27 13:22 | 50.33752 | 30.90153 | 413 ft | 20 kts | 183° |
| 2026-04-27 13:22 | 50.33614 | 30.90145 | 414 ft | 22 kts | 182° |
| 2026-04-27 13:22 | 50.33453 | 30.90132 | 410 ft | 25 kts | 184° |
| 2026-04-27 13:23 | 50.33288 | 30.90119 | 413 ft | 25 kts | 184° |
| 2026-04-27 13:23 | 50.33120 | 30.90108 | 408 ft | 20 kts | 183° |
| 2026-04-27 13:23 | 50.32986 | 30.90095 | 415 ft | 2 kts | 184° |
| 2026-04-27 13:23 | 50.32935 | 30.90090 | 414 ft | 13 kts | 184° |
| 2026-04-27 13:24 | 50.32824 | 30.90088 | 414 ft | 18 kts | 180° |
| 2026-04-27 13:24 | 50.32668 | 30.90078 | 413 ft | 19 kts | 187° |
| 2026-04-27 13:24 | 50.32634 | 30.90072 | 414 ft | 9 kts | 186° |
| 2026-04-27 13:24 | 50.32545 | 30.90062 | 415 ft | 13 kts | 179° |
| 2026-04-27 13:25 | 50.32489 | 30.90086 | 415 ft | 0 kts | 151° |
| 2026-04-27 13:27 | 50.32478 | 30.90097 | 413 ft | 6 kts | 143° |
| 2026-04-27 13:27 | 50.32443 | 30.90184 | 409 ft | 12 kts | 105° |
| 2026-04-27 13:27 | 50.32473 | 30.90323 | 413 ft | 16 kts | 47° |
| 2026-04-27 13:27 | 50.32719 | 30.90387 | 423 ft | 69 kts | 0° |
| 2026-04-27 13:28 | 50.33406 | 30.90440 | 415 ft | 125 kts | 4° |
| 2026-04-27 13:28 | 50.34385 | 30.90550 | 917 ft | 144 kts | 357° |
| 2026-04-27 13:28 | 50.35371 | 30.90726 | 1859 ft | 145 kts | 355° |
| 2026-04-27 13:28 | 50.36425 | 30.90867 | 2621 ft | 163 kts | 354° |
| 2026-04-27 13:29 | 50.37580 | 30.90978 | 3517 ft | 162 kts | 354° |
| 2026-04-27 13:29 | 50.38705 | 30.91099 | 3735 ft | 168 kts | 354° |
| 2026-04-27 13:29 | 50.39926 | 30.91211 | 3875 ft | 182 kts | 354° |
| 2026-04-27 13:29 | 50.41200 | 30.91318 | 4635 ft | 182 kts | 354° |
| 2026-04-27 13:30 | 50.42467 | 30.91434 | 5537 ft | 186 kts | 355° |
| 2026-04-27 13:30 | 50.43784 | 30.91560 | 6427 ft | 193 kts | 355° |
| 2026-04-27 13:30 | 50.45146 | 30.91740 | 7262 ft | 206 kts | 5° |
| 2026-04-27 13:30 | 50.46513 | 30.92863 | 7870 ft | 243 kts | 37° |
| 2026-04-27 13:31 | 50.47489 | 30.95242 | 8470 ft | 279 kts | 66° |
| 2026-04-27 13:31 | 50.47716 | 30.98408 | 9091 ft | 307 kts | 95° |
| 2026-04-27 13:31 | 50.47031 | 31.01578 | 10007 ft | 317 kts | 122° |
| 2026-04-27 13:31 | 50.45543 | 31.04207 | 10608 ft | 334 kts | 146° |
| 2026-04-27 13:32 | 50.43386 | 31.05863 | 10963 ft | 351 kts | 171° |
| 2026-04-27 13:32 | 50.40946 | 31.06091 | 11503 ft | 353 kts | 194° |
| 2026-04-27 13:32 | 50.38542 | 31.05471 | 12328 ft | 360 kts | 194° |
| 2026-04-27 13:32 | 50.35981 | 31.05381 | 13147 ft | 376 kts | 180° |
| 2026-04-27 13:33 | 50.33362 | 31.06155 | 13914 ft | 391 kts | 168° |
| 2026-04-27 13:33 | 50.30755 | 31.07566 | 14672 ft | 400 kts | 162° |
| 2026-04-27 13:33 | 50.28175 | 31.09298 | 15414 ft | 407 kts | 159° |
| 2026-04-27 13:33 | 50.25582 | 31.11166 | 16122 ft | 414 kts | 159° |
| 2026-04-27 13:34 | 50.22952 | 31.13085 | 16849 ft | 421 kts | 159° |
| 2026-04-27 13:34 | 50.20280 | 31.15020 | 17555 ft | 427 kts | 160° |
| 2026-04-27 13:34 | 50.17564 | 31.16966 | 18231 ft | 432 kts | 160° |
| 2026-04-27 13:34 | 50.14809 | 31.18927 | 18917 ft | 436 kts | 160° |
| 2026-04-27 13:35 | 50.12020 | 31.20903 | 19555 ft | 441 kts | 161° |
| 2026-04-27 13:35 | 50.09206 | 31.22891 | 20207 ft | 446 kts | 161° |
| 2026-04-27 13:35 | 50.06363 | 31.24897 | 20835 ft | 451 kts | 161° |
| 2026-04-27 13:35 | 50.03490 | 31.26921 | 21454 ft | 456 kts | 161° |
| 2026-04-27 13:36 | 50.00587 | 31.28963 | 22061 ft | 461 kts | 161° |
| 2026-04-27 13:36 | 49.97648 | 31.31028 | 22689 ft | 465 kts | 161° |
| 2026-04-27 13:36 | 49.94677 | 31.33112 | 23294 ft | 470 kts | 161° |
| 2026-04-27 13:36 | 49.91712 | 31.35188 | 23840 ft | 475 kts | 161° |
| 2026-04-27 13:37 | 49.88690 | 31.37303 | 24381 ft | 478 kts | 161° |
| 2026-04-27 13:37 | 49.85646 | 31.39430 | 24908 ft | 481 kts | 161° |
| 2026-04-27 13:37 | 49.82588 | 31.41563 | 25501 ft | 481 kts | 161° |
| 2026-04-27 13:37 | 49.79522 | 31.43700 | 25972 ft | 486 kts | 161° |
| 2026-04-27 13:38 | 49.76421 | 31.45855 | 26449 ft | 489 kts | 162° |
| 2026-04-27 13:38 | 49.73308 | 31.48017 | 26933 ft | 492 kts | 162° |
| 2026-04-27 13:38 | 49.70180 | 31.50186 | 27392 ft | 495 kts | 162° |
| 2026-04-27 13:38 | 49.67018 | 31.52376 | 27858 ft | 498 kts | 162° |
| 2026-04-27 13:39 | 49.63844 | 31.54570 | 28297 ft | 501 kts | 162° |
| 2026-04-27 13:39 | 49.60654 | 31.56773 | 28738 ft | 504 kts | 162° |
| 2026-04-27 13:39 | 49.57494 | 31.59020 | 29127 ft | 511 kts | 157° |
| 2026-04-27 13:39 | 49.54501 | 31.62058 | 29528 ft | 521 kts | 144° |
| 2026-04-27 13:40 | 49.51888 | 31.65978 | 29900 ft | 529 kts | 131° |
| 2026-04-27 13:40 | 49.49768 | 31.70633 | 30220 ft | 533 kts | 118° |
| 2026-04-27 13:40 | 49.48240 | 31.75805 | 30775 ft | 529 kts | 108° |
| 2026-04-27 13:40 | 49.46976 | 31.81149 | 30977 ft | 536 kts | 108° |
| 2026-04-27 13:41 | 49.45618 | 31.86514 | 31330 ft | 538 kts | 111° |
| 2026-04-27 13:41 | 49.44641 | 31.90016 | 31658 ft | 537 kts | 112° |
| 2026-04-27 13:41 | 49.43080 | 31.95225 | 32153 ft | 536 kts | 114° |
| 2026-04-27 13:41 | 49.40908 | 32.02068 | 32739 ft | 536 kts | 116° |
| 2026-04-27 13:42 | 49.39771 | 32.05519 | 32954 ft | 535 kts | 116° |
| 2026-04-27 13:42 | 49.38094 | 32.10532 | 33076 ft | 533 kts | 117° |
| 2026-04-27 13:42 | 49.34696 | 32.20647 | 33084 ft | 532 kts | 117° |
| 2026-04-27 13:43 | 49.31306 | 32.30746 | 33087 ft | 532 kts | 117° |
| 2026-04-27 13:43 | 49.27931 | 32.40784 | 33083 ft | 527 kts | 117° |
| 2026-04-27 13:44 | 49.24553 | 32.50784 | 33086 ft | 528 kts | 117° |
| 2026-04-27 13:44 | 49.21168 | 32.60767 | 33086 ft | 528 kts | 117° |
| 2026-04-27 13:45 | 49.17797 | 32.70671 | 33085 ft | 528 kts | 117° |
| 2026-04-27 13:45 | 49.14391 | 32.80641 | 33087 ft | 529 kts | 117° |
| 2026-04-27 13:46 | 49.10978 | 32.90590 | 33090 ft | 529 kts | 117° |
| 2026-04-27 13:46 | 49.07553 | 33.00538 | 33089 ft | 529 kts | 117° |
| 2026-04-27 13:47 | 49.04117 | 33.10480 | 33087 ft | 529 kts | 118° |
| 2026-04-27 13:47 | 49.00698 | 33.20333 | 32798 ft | 526 kts | 118° |
| 2026-04-27 13:48 | 48.98964 | 33.25316 | 32148 ft | 526 kts | 118° |
| 2026-04-27 13:48 | 48.97272 | 33.30172 | 31354 ft | 527 kts | 118° |
| 2026-04-27 13:48 | 48.95544 | 33.35117 | 30509 ft | 530 kts | 118° |
| 2026-04-27 13:48 | 48.93827 | 33.40085 | 29776 ft | 528 kts | 117° |
| 2026-04-27 13:49 | 48.92188 | 33.45055 | 29104 ft | 523 kts | 116° |
| 2026-04-27 13:49 | 48.90582 | 33.49995 | 28442 ft | 519 kts | 116° |
| 2026-04-27 13:49 | 48.88991 | 33.54878 | 27817 ft | 514 kts | 116° |
| 2026-04-27 13:49 | 48.87400 | 33.59726 | 27201 ft | 509 kts | 116° |
| 2026-04-27 13:50 | 48.85823 | 33.64505 | 26582 ft | 504 kts | 116° |
| 2026-04-27 13:50 | 48.84254 | 33.69240 | 25993 ft | 500 kts | 116° |
| 2026-04-27 13:50 | 48.82692 | 33.73939 | 25418 ft | 496 kts | 116° |
| 2026-04-27 13:50 | 48.81144 | 33.78587 | 24843 ft | 492 kts | 116° |
| 2026-04-27 13:51 | 48.79607 | 33.83194 | 24262 ft | 488 kts | 116° |
| 2026-04-27 13:51 | 48.78093 | 33.87723 | 23718 ft | 484 kts | 116° |
| 2026-04-27 13:51 | 48.76576 | 33.92253 | 23102 ft | 480 kts | 116° |
| 2026-04-27 13:51 | 48.75071 | 33.96743 | 22530 ft | 474 kts | 116° |
| 2026-04-27 13:52 | 48.73583 | 34.01173 | 21947 ft | 469 kts | 116° |
| 2026-04-27 13:52 | 48.72106 | 34.05561 | 21390 ft | 464 kts | 117° |
| 2026-04-27 13:52 | 48.70646 | 34.09894 | 20820 ft | 459 kts | 117° |
| 2026-04-27 13:52 | 48.69197 | 34.14185 | 20273 ft | 455 kts | 117° |
| 2026-04-27 13:53 | 48.66342 | 34.22622 | 19185 ft | 447 kts | 117° |
| 2026-04-27 13:53 | 48.64929 | 34.26784 | 18680 ft | 442 kts | 117° |
| 2026-04-27 13:53 | 48.63545 | 34.30853 | 18145 ft | 438 kts | 117° |
| 2026-04-27 13:54 | 48.62150 | 34.34929 | 17598 ft | 433 kts | 117° |
| 2026-04-27 13:54 | 48.60770 | 34.38953 | 17040 ft | 428 kts | 117° |
| 2026-04-27 13:54 | 48.59405 | 34.42928 | 16510 ft | 424 kts | 117° |
| 2026-04-27 13:54 | 48.58053 | 34.46860 | 16022 ft | 419 kts | 117° |
| 2026-04-27 13:55 | 48.56716 | 34.50744 | 15488 ft | 415 kts | 117° |
| 2026-04-27 13:55 | 48.55398 | 34.54573 | 15146 ft | 409 kts | 117° |
| 2026-04-27 13:55 | 48.54078 | 34.58397 | 14903 ft | 411 kts | 117° |
| 2026-04-27 13:55 | 48.52757 | 34.62217 | 14651 ft | 409 kts | 117° |
| 2026-04-27 13:56 | 48.51443 | 34.66012 | 14410 ft | 406 kts | 117° |
| 2026-04-27 13:56 | 48.50136 | 34.69784 | 14164 ft | 404 kts | 117° |
| 2026-04-27 13:56 | 48.48853 | 34.73480 | 13878 ft | 401 kts | 117° |
| 2026-04-27 13:56 | 48.47562 | 34.77194 | 13356 ft | 399 kts | 117° |
| 2026-04-27 13:57 | 48.46277 | 34.80884 | 12770 ft | 397 kts | 117° |
| 2026-04-27 13:57 | 48.45000 | 34.84547 | 12078 ft | 390 kts | 117° |
| 2026-04-27 13:57 | 48.43752 | 34.88120 | 11423 ft | 380 kts | 117° |
| 2026-04-27 13:57 | 48.42537 | 34.91596 | 10787 ft | 371 kts | 117° |
| 2026-04-27 13:58 | 48.41347 | 34.94988 | 10166 ft | 363 kts | 117° |
| 2026-04-27 13:58 | 48.40182 | 34.98312 | 9501 ft | 355 kts | 117° |
| 2026-04-27 13:58 | 48.39046 | 35.01550 | 8960 ft | 344 kts | 117° |
| 2026-04-27 13:58 | 48.37953 | 35.04664 | 8579 ft | 329 kts | 117° |
| 2026-04-27 13:59 | 48.36904 | 35.07644 | 8238 ft | 315 kts | 118° |
| 2026-04-27 13:59 | 48.35630 | 35.10181 | 8104 ft | 300 kts | 140° |
| 2026-04-27 13:59 | 48.33869 | 35.11922 | 7885 ft | 302 kts | 156° |
| 2026-04-27 13:59 | 48.32014 | 35.13330 | 7488 ft | 295 kts | 156° |
| 2026-04-27 14:00 | 48.30187 | 35.14700 | 7108 ft | 294 kts | 157° |
| 2026-04-27 14:00 | 48.28361 | 35.16068 | 6723 ft | 290 kts | 157° |
| 2026-04-27 14:00 | 48.26580 | 35.17404 | 6350 ft | 290 kts | 157° |
| 2026-04-27 14:00 | 48.24775 | 35.18762 | 5939 ft | 289 kts | 156° |
| 2026-04-27 14:01 | 48.22975 | 35.20118 | 5547 ft | 288 kts | 156° |
| 2026-04-27 14:01 | 48.21193 | 35.21461 | 5157 ft | 286 kts | 156° |
| 2026-04-27 14:01 | 48.19418 | 35.22798 | 4766 ft | 285 kts | 157° |
| 2026-04-27 14:01 | 48.17647 | 35.24133 | 4363 ft | 284 kts | 157° |
| 2026-04-27 14:02 | 48.15886 | 35.25457 | 3963 ft | 282 kts | 157° |
| 2026-04-27 14:02 | 48.14134 | 35.26773 | 3574 ft | 281 kts | 157° |
| 2026-04-27 14:02 | 48.12404 | 35.28070 | 3220 ft | 280 kts | 156° |
| 2026-04-27 14:02 | 48.10680 | 35.29363 | 3009 ft | 275 kts | 156° |
| 2026-04-27 14:03 | 48.08962 | 35.30650 | 2879 ft | 276 kts | 156° |
| 2026-04-27 14:03 | 48.07246 | 35.31935 | 2668 ft | 275 kts | 156° |
| 2026-04-27 14:03 | 48.05535 | 35.33217 | 2403 ft | 274 kts | 156° |
| 2026-04-27 14:03 | 48.03835 | 35.34488 | 2158 ft | 271 kts | 156° |
| 2026-04-27 14:04 | 48.02162 | 35.35742 | 1916 ft | 267 kts | 156° |
| 2026-04-27 14:04 | 48.00506 | 35.36982 | 1659 ft | 263 kts | 157° |
| 2026-04-27 14:04 | 47.98848 | 35.37878 | 1604 ft | 245 kts | 177° |
| 2026-04-27 14:04 | 47.97231 | 35.37786 | 1605 ft | 223 kts | 197° |
| 2026-04-27 14:05 | 47.95801 | 35.37165 | 1605 ft | 207 kts | 207° |
| 2026-04-27 14:05 | 47.94469 | 35.36357 | 1602 ft | 205 kts | 211° |
| 2026-04-27 14:05 | 47.93185 | 35.35538 | 1615 ft | 205 kts | 209° |
| 2026-04-27 14:05 | 47.91899 | 35.34744 | 1409 ft | 187 kts | 210° |
| 2026-04-27 14:06 | 47.90756 | 35.34027 | 1085 ft | 174 kts | 209° |
| 2026-04-27 14:06 | 47.89684 | 35.33363 | 836 ft | 160 kts | 210° |
| 2026-04-27 14:06 | 47.88696 | 35.32742 | 622 ft | 148 kts | 212° |
| 2026-04-27 14:06 | 47.87795 | 35.32179 | 448 ft | 133 kts | 213° |
| 2026-04-27 14:07 | 47.87019 | 35.31665 | 372 ft | 89 kts | 205° |
| 2026-04-27 14:07 | 47.86802 | 35.31548 | 371 ft | 18 kts | 200° |
| 2026-04-27 14:07 | 47.86670 | 35.31470 | 368 ft | 22 kts | 202° |
| 2026-04-27 14:07 | 47.86582 | 35.31375 | 366 ft | 13 kts | 255° |
| 2026-04-27 14:08 | 47.86581 | 35.31242 | 353 ft | 0 kts | 273° |
| 2026-04-27 14:08 | 47.86581 | 35.31241 | 353 ft | 0 kts | 273° |
| 2026-04-27 14:10 | 47.86583 | 35.31213 | 359 ft | 4 kts | 274° |
| 2026-04-27 14:10 | 47.86586 | 35.31141 | 355 ft | 10 kts | 274° |
| 2026-04-27 14:10 | 47.86593 | 35.31012 | 363 ft | 15 kts | 274° |
| 2026-04-27 14:11 | 47.86617 | 35.30843 | 360 ft | 18 kts | 307° |
| 2026-04-27 14:11 | 47.86717 | 35.30731 | 360 ft | 18 kts | 329° |
| 2026-04-27 14:11 | 47.86822 | 35.30641 | 362 ft | 19 kts | 330° |
| 2026-04-27 14:11 | 47.86907 | 35.30567 | 364 ft | 9 kts | 330° |
| 2026-04-27 14:12 | 47.86986 | 35.30498 | 365 ft | 16 kts | 330° |
| 2026-04-27 14:12 | 47.87100 | 35.30401 | 370 ft | 19 kts | 330° |
| 2026-04-27 14:12 | 47.87207 | 35.30289 | 369 ft | 16 kts | 323° |
| 2026-04-27 14:12 | 47.87249 | 35.30222 | 373 ft | 5 kts | 273° |
| 2026-04-27 14:13 | 47.87227 | 35.30168 | 368 ft | 0 kts | 237° |